sensor_id;sensor_type;location;lat;lon;timestamp;P1;durP1;ratioP1;P2;durP2;ratioP2
11807;SDS011;5961;42.640;23.380;2022-11-27T00:02:12;23.97;;;15.60;;
11807;SDS011;5961;42.640;23.380;2022-11-27T00:04:38;27.27;;;15.73;;
11807;SDS011;5961;42.640;23.380;2022-11-27T00:07:05;25.83;;;16.73;;
11807;SDS011;5961;42.640;23.380;2022-11-27T00:09:33;27.33;;;15.43;;
11807;SDS011;5961;42.640;23.380;2022-11-27T00:12:00;22.03;;;14.27;;
11807;SDS011;5961;42.640;23.380;2022-11-27T00:14:27;27.97;;;15.40;;
11807;SDS011;5961;42.640;23.380;2022-11-27T00:16:53;22.90;;;14.13;;
11807;SDS011;5961;42.640;23.380;2022-11-27T00:19:21;25.33;;;14.07;;
11807;SDS011;5961;42.640;23.380;2022-11-27T00:21:48;21.63;;;13.00;;
11807;SDS011;5961;42.640;23.380;2022-11-27T00:24:15;21.40;;;12.37;;
11807;SDS011;5961;42.640;23.380;2022-11-27T00:26:43;21.00;;;12.53;;
11807;SDS011;5961;42.640;23.380;2022-11-27T00:29:10;21.37;;;12.93;;
11807;SDS011;5961;42.640;23.380;2022-11-27T00:31:37;24.00;;;13.93;;
11807;SDS011;5961;42.640;23.380;2022-11-27T00:34:05;26.10;;;14.67;;
11807;SDS011;5961;42.640;23.380;2022-11-27T00:36:33;22.37;;;14.63;;
11807;SDS011;5961;42.640;23.380;2022-11-27T00:39:00;23.90;;;14.73;;
11807;SDS011;5961;42.640;23.380;2022-11-27T00:41:28;23.53;;;13.90;;
11807;SDS011;5961;42.640;23.380;2022-11-27T00:43:57;22.13;;;14.50;;
11807;SDS011;5961;42.640;23.380;2022-11-27T00:46:24;22.43;;;14.50;;
11807;SDS011;5961;42.640;23.380;2022-11-27T00:48:51;24.67;;;14.57;;
11807;SDS011;5961;42.640;23.380;2022-11-27T00:51:19;28.03;;;16.03;;
11807;SDS011;5961;42.640;23.380;2022-11-27T00:53:47;24.23;;;16.07;;
11807;SDS011;5961;42.640;23.380;2022-11-27T00:56:15;24.67;;;15.07;;
11807;SDS011;5961;42.640;23.380;2022-11-27T00:58:42;23.97;;;15.43;;
11807;SDS011;5961;42.640;23.380;2022-11-27T01:01:14;26.63;;;15.23;;
11807;SDS011;5961;42.640;23.380;2022-11-27T01:03:43;26.77;;;15.70;;
11807;SDS011;5961;42.640;23.380;2022-11-27T01:06:10;23.50;;;15.00;;
11807;SDS011;5961;42.640;23.380;2022-11-27T01:08:37;21.13;;;14.60;;
11807;SDS011;5961;42.640;23.380;2022-11-27T01:11:04;25.47;;;15.90;;
11807;SDS011;5961;42.640;23.380;2022-11-27T01:13:32;22.97;;;15.53;;
11807;SDS011;5961;42.640;23.380;2022-11-27T01:16:00;24.50;;;15.33;;
11807;SDS011;5961;42.640;23.380;2022-11-27T01:18:31;24.13;;;15.90;;
11807;SDS011;5961;42.640;23.380;2022-11-27T01:20:58;25.47;;;16.03;;
11807;SDS011;5961;42.640;23.380;2022-11-27T01:23:25;23.23;;;15.47;;
11807;SDS011;5961;42.640;23.380;2022-11-27T01:25:52;25.37;;;15.47;;
11807;SDS011;5961;42.640;23.380;2022-11-27T01:28:19;23.63;;;15.70;;
11807;SDS011;5961;42.640;23.380;2022-11-27T01:30:46;22.23;;;15.10;;
11807;SDS011;5961;42.640;23.380;2022-11-27T01:33:13;27.83;;;16.80;;
11807;SDS011;5961;42.640;23.380;2022-11-27T01:35:41;24.97;;;16.43;;
11807;SDS011;5961;42.640;23.380;2022-11-27T01:38:08;23.07;;;15.77;;
11807;SDS011;5961;42.640;23.380;2022-11-27T01:40:35;27.67;;;17.17;;
11807;SDS011;5961;42.640;23.380;2022-11-27T01:43:01;28.57;;;16.63;;
11807;SDS011;5961;42.640;23.380;2022-11-27T01:45:28;27.50;;;16.90;;
11807;SDS011;5961;42.640;23.380;2022-11-27T01:47:56;28.27;;;16.83;;
11807;SDS011;5961;42.640;23.380;2022-11-27T01:50:27;29.03;;;17.80;;
11807;SDS011;5961;42.640;23.380;2022-11-27T01:52:59;26.20;;;17.57;;
11807;SDS011;5961;42.640;23.380;2022-11-27T01:55:29;29.83;;;17.43;;
11807;SDS011;5961;42.640;23.380;2022-11-27T01:58:05;29.40;;;17.50;;
11807;SDS011;5961;42.640;23.380;2022-11-27T02:00:34;27.27;;;17.20;;
11807;SDS011;5961;42.640;23.380;2022-11-27T02:03:02;24.37;;;15.43;;
11807;SDS011;5961;42.640;23.380;2022-11-27T02:05:29;25.53;;;15.70;;
11807;SDS011;5961;42.640;23.380;2022-11-27T02:08:00;18.40;;;11.83;;
11807;SDS011;5961;42.640;23.380;2022-11-27T02:10:34;19.20;;;11.90;;
11807;SDS011;5961;42.640;23.380;2022-11-27T02:13:10;15.43;;;10.33;;
11807;SDS011;5961;42.640;23.380;2022-11-27T02:15:40;17.03;;;10.73;;
11807;SDS011;5961;42.640;23.380;2022-11-27T02:18:13;17.17;;;11.57;;
11807;SDS011;5961;42.640;23.380;2022-11-27T02:20:46;19.10;;;12.43;;
11807;SDS011;5961;42.640;23.380;2022-11-27T02:23:32;19.13;;;11.20;;
11807;SDS011;5961;42.640;23.380;2022-11-27T02:26:23;21.93;;;13.17;;
11807;SDS011;5961;42.640;23.380;2022-11-27T02:29:13;18.77;;;11.97;;
11807;SDS011;5961;42.640;23.380;2022-11-27T02:31:44;23.23;;;13.50;;
11807;SDS011;5961;42.640;23.380;2022-11-27T02:34:16;21.03;;;12.50;;
11807;SDS011;5961;42.640;23.380;2022-11-27T02:36:52;22.17;;;14.20;;
11807;SDS011;5961;42.640;23.380;2022-11-27T02:39:25;23.93;;;13.67;;
11807;SDS011;5961;42.640;23.380;2022-11-27T02:41:58;24.43;;;14.97;;
11807;SDS011;5961;42.640;23.380;2022-11-27T02:44:31;24.20;;;13.87;;
11807;SDS011;5961;42.640;23.380;2022-11-27T02:47:02;21.10;;;13.03;;
11807;SDS011;5961;42.640;23.380;2022-11-27T02:49:30;28.60;;;14.97;;
11807;SDS011;5961;42.640;23.380;2022-11-27T02:51:59;22.87;;;14.47;;
11807;SDS011;5961;42.640;23.380;2022-11-27T02:54:27;21.50;;;13.83;;
11807;SDS011;5961;42.640;23.380;2022-11-27T02:56:56;22.10;;;13.97;;
11807;SDS011;5961;42.640;23.380;2022-11-27T02:59:26;23.30;;;13.60;;
11807;SDS011;5961;42.640;23.380;2022-11-27T03:01:59;20.63;;;13.33;;
11807;SDS011;5961;42.640;23.380;2022-11-27T03:04:31;20.87;;;13.43;;
11807;SDS011;5961;42.640;23.380;2022-11-27T03:07:03;20.73;;;13.80;;
11807;SDS011;5961;42.640;23.380;2022-11-27T03:09:34;21.87;;;14.23;;
11807;SDS011;5961;42.640;23.380;2022-11-27T03:12:04;22.03;;;12.87;;
11807;SDS011;5961;42.640;23.380;2022-11-27T03:14:33;25.10;;;14.33;;
11807;SDS011;5961;42.640;23.380;2022-11-27T03:17:04;24.93;;;14.13;;
11807;SDS011;5961;42.640;23.380;2022-11-27T03:19:44;24.70;;;14.27;;
11807;SDS011;5961;42.640;23.380;2022-11-27T03:22:16;22.93;;;13.37;;
11807;SDS011;5961;42.640;23.380;2022-11-27T03:24:44;25.20;;;14.67;;
11807;SDS011;5961;42.640;23.380;2022-11-27T03:27:13;27.30;;;14.73;;
11807;SDS011;5961;42.640;23.380;2022-11-27T03:29:44;27.23;;;16.03;;
11807;SDS011;5961;42.640;23.380;2022-11-27T03:32:15;23.50;;;15.50;;
11807;SDS011;5961;42.640;23.380;2022-11-27T03:34:42;25.83;;;15.37;;
11807;SDS011;5961;42.640;23.380;2022-11-27T03:37:10;26.57;;;15.60;;
11807;SDS011;5961;42.640;23.380;2022-11-27T03:39:36;26.40;;;16.30;;
11807;SDS011;5961;42.640;23.380;2022-11-27T03:42:06;27.07;;;16.90;;
11807;SDS011;5961;42.640;23.380;2022-11-27T03:44:43;27.70;;;16.63;;
11807;SDS011;5961;42.640;23.380;2022-11-27T03:47:18;29.93;;;18.77;;
11807;SDS011;5961;42.640;23.380;2022-11-27T03:49:56;26.87;;;17.37;;
11807;SDS011;5961;42.640;23.380;2022-11-27T03:52:35;32.20;;;19.13;;
11807;SDS011;5961;42.640;23.380;2022-11-27T03:55:10;33.30;;;19.93;;
11807;SDS011;5961;42.640;23.380;2022-11-27T03:57:42;37.07;;;20.87;;
11807;SDS011;5961;42.640;23.380;2022-11-27T04:00:18;33.87;;;20.93;;
11807;SDS011;5961;42.640;23.380;2022-11-27T04:02:48;39.90;;;21.70;;
11807;SDS011;5961;42.640;23.380;2022-11-27T04:05:16;38.23;;;21.73;;
11807;SDS011;5961;42.640;23.380;2022-11-27T04:07:44;42.03;;;22.53;;
11807;SDS011;5961;42.640;23.380;2022-11-27T04:10:11;39.57;;;22.67;;
11807;SDS011;5961;42.640;23.380;2022-11-27T04:12:38;39.30;;;22.13;;
11807;SDS011;5961;42.640;23.380;2022-11-27T04:15:05;40.30;;;22.80;;
11807;SDS011;5961;42.640;23.380;2022-11-27T04:17:33;37.43;;;22.60;;
11807;SDS011;5961;42.640;23.380;2022-11-27T04:20:01;37.63;;;22.27;;
11807;SDS011;5961;42.640;23.380;2022-11-27T04:22:28;39.47;;;22.53;;
11807;SDS011;5961;42.640;23.380;2022-11-27T04:24:54;36.20;;;21.70;;
11807;SDS011;5961;42.640;23.380;2022-11-27T04:27:21;37.83;;;23.07;;
11807;SDS011;5961;42.640;23.380;2022-11-27T04:29:48;36.27;;;22.23;;
11807;SDS011;5961;42.640;23.380;2022-11-27T04:32:14;36.70;;;22.90;;
11807;SDS011;5961;42.640;23.380;2022-11-27T04:34:41;37.37;;;21.23;;
11807;SDS011;5961;42.640;23.380;2022-11-27T04:37:09;37.50;;;21.30;;
11807;SDS011;5961;42.640;23.380;2022-11-27T04:39:36;38.57;;;22.27;;
11807;SDS011;5961;42.640;23.380;2022-11-27T04:42:03;36.20;;;21.80;;
11807;SDS011;5961;42.640;23.380;2022-11-27T04:44:29;37.10;;;21.67;;
11807;SDS011;5961;42.640;23.380;2022-11-27T04:46:56;37.73;;;21.67;;
11807;SDS011;5961;42.640;23.380;2022-11-27T04:49:23;39.60;;;22.10;;
11807;SDS011;5961;42.640;23.380;2022-11-27T04:51:49;39.07;;;20.97;;
11807;SDS011;5961;42.640;23.380;2022-11-27T04:54:18;38.60;;;21.63;;
11807;SDS011;5961;42.640;23.380;2022-11-27T04:56:44;37.00;;;20.80;;
11807;SDS011;5961;42.640;23.380;2022-11-27T04:59:11;35.60;;;20.57;;
11807;SDS011;5961;42.640;23.380;2022-11-27T05:01:38;40.27;;;22.17;;
11807;SDS011;5961;42.640;23.380;2022-11-27T05:04:04;37.67;;;20.97;;
11807;SDS011;5961;42.640;23.380;2022-11-27T05:06:31;39.33;;;22.13;;
11807;SDS011;5961;42.640;23.380;2022-11-27T05:08:58;38.43;;;22.23;;
11807;SDS011;5961;42.640;23.380;2022-11-27T05:11:27;38.40;;;20.40;;
11807;SDS011;5961;42.640;23.380;2022-11-27T05:13:55;42.73;;;21.80;;
11807;SDS011;5961;42.640;23.380;2022-11-27T05:16:36;39.93;;;22.40;;
11807;SDS011;5961;42.640;23.380;2022-11-27T05:19:03;38.17;;;20.83;;
11807;SDS011;5961;42.640;23.380;2022-11-27T05:21:29;39.83;;;22.33;;
11807;SDS011;5961;42.640;23.380;2022-11-27T05:23:56;36.50;;;21.07;;
11807;SDS011;5961;42.640;23.380;2022-11-27T05:26:23;37.00;;;21.03;;
11807;SDS011;5961;42.640;23.380;2022-11-27T05:28:51;37.17;;;21.40;;
11807;SDS011;5961;42.640;23.380;2022-11-27T05:31:17;37.40;;;20.93;;
11807;SDS011;5961;42.640;23.380;2022-11-27T05:33:44;42.93;;;22.70;;
11807;SDS011;5961;42.640;23.380;2022-11-27T05:36:11;38.83;;;21.90;;
11807;SDS011;5961;42.640;23.380;2022-11-27T05:38:38;43.93;;;21.60;;
11807;SDS011;5961;42.640;23.380;2022-11-27T05:41:05;39.63;;;22.00;;
11807;SDS011;5961;42.640;23.380;2022-11-27T05:43:31;41.30;;;22.00;;
11807;SDS011;5961;42.640;23.380;2022-11-27T05:46:00;40.00;;;21.87;;
11807;SDS011;5961;42.640;23.380;2022-11-27T05:48:30;40.80;;;22.17;;
11807;SDS011;5961;42.640;23.380;2022-11-27T05:50:56;38.97;;;22.23;;
11807;SDS011;5961;42.640;23.380;2022-11-27T05:53:23;40.43;;;21.73;;
11807;SDS011;5961;42.640;23.380;2022-11-27T05:55:50;41.90;;;21.80;;
11807;SDS011;5961;42.640;23.380;2022-11-27T05:58:16;37.63;;;21.77;;
11807;SDS011;5961;42.640;23.380;2022-11-27T06:00:43;40.20;;;22.67;;
11807;SDS011;5961;42.640;23.380;2022-11-27T06:03:11;39.77;;;21.77;;
11807;SDS011;5961;42.640;23.380;2022-11-27T06:05:38;36.17;;;22.07;;
11807;SDS011;5961;42.640;23.380;2022-11-27T06:08:05;36.07;;;21.37;;
11807;SDS011;5961;42.640;23.380;2022-11-27T06:10:31;35.20;;;21.30;;
11807;SDS011;5961;42.640;23.380;2022-11-27T06:12:58;35.50;;;20.23;;
11807;SDS011;5961;42.640;23.380;2022-11-27T06:15:25;38.07;;;21.57;;
11807;SDS011;5961;42.640;23.380;2022-11-27T06:17:52;41.50;;;24.03;;
11807;SDS011;5961;42.640;23.380;2022-11-27T06:20:20;48.23;;;25.60;;
11807;SDS011;5961;42.640;23.380;2022-11-27T06:22:48;44.50;;;25.97;;
11807;SDS011;5961;42.640;23.380;2022-11-27T06:25:15;40.90;;;25.70;;
11807;SDS011;5961;42.640;23.380;2022-11-27T06:27:41;41.17;;;24.70;;
11807;SDS011;5961;42.640;23.380;2022-11-27T06:30:09;46.70;;;26.87;;
11807;SDS011;5961;42.640;23.380;2022-11-27T06:32:36;47.07;;;27.03;;
11807;SDS011;5961;42.640;23.380;2022-11-27T06:35:03;51.30;;;27.30;;
11807;SDS011;5961;42.640;23.380;2022-11-27T06:37:31;48.30;;;27.40;;
11807;SDS011;5961;42.640;23.380;2022-11-27T06:39:58;51.03;;;27.30;;
11807;SDS011;5961;42.640;23.380;2022-11-27T06:42:27;53.73;;;28.67;;
11807;SDS011;5961;42.640;23.380;2022-11-27T06:44:54;48.50;;;27.97;;
11807;SDS011;5961;42.640;23.380;2022-11-27T06:47:21;47.17;;;28.10;;
11807;SDS011;5961;42.640;23.380;2022-11-27T06:49:48;45.03;;;27.30;;
11807;SDS011;5961;42.640;23.380;2022-11-27T06:52:14;50.77;;;27.30;;
11807;SDS011;5961;42.640;23.380;2022-11-27T06:54:43;50.47;;;28.47;;
11807;SDS011;5961;42.640;23.380;2022-11-27T06:57:09;50.53;;;28.07;;
11807;SDS011;5961;42.640;23.380;2022-11-27T06:59:36;51.97;;;27.80;;
11807;SDS011;5961;42.640;23.380;2022-11-27T07:02:03;52.83;;;29.17;;
11807;SDS011;5961;42.640;23.380;2022-11-27T07:04:29;56.60;;;29.80;;
11807;SDS011;5961;42.640;23.380;2022-11-27T07:06:56;53.20;;;29.37;;
11807;SDS011;5961;42.640;23.380;2022-11-27T07:09:23;51.03;;;27.60;;
11807;SDS011;5961;42.640;23.380;2022-11-27T07:11:51;51.73;;;28.23;;
11807;SDS011;5961;42.640;23.380;2022-11-27T07:14:17;51.53;;;28.47;;
11807;SDS011;5961;42.640;23.380;2022-11-27T07:16:44;49.60;;;28.03;;
11807;SDS011;5961;42.640;23.380;2022-11-27T07:19:11;50.67;;;28.57;;
11807;SDS011;5961;42.640;23.380;2022-11-27T07:21:38;54.23;;;28.67;;
11807;SDS011;5961;42.640;23.380;2022-11-27T07:24:06;53.90;;;29.53;;
11807;SDS011;5961;42.640;23.380;2022-11-27T07:26:33;57.67;;;29.43;;
11807;SDS011;5961;42.640;23.380;2022-11-27T07:29:01;54.30;;;31.10;;
11807;SDS011;5961;42.640;23.380;2022-11-27T07:31:28;58.17;;;29.80;;
11807;SDS011;5961;42.640;23.380;2022-11-27T07:33:56;55.13;;;29.63;;
11807;SDS011;5961;42.640;23.380;2022-11-27T07:36:23;59.10;;;28.97;;
11807;SDS011;5961;42.640;23.380;2022-11-27T07:38:51;50.13;;;28.27;;
11807;SDS011;5961;42.640;23.380;2022-11-27T07:41:18;50.50;;;29.07;;
11807;SDS011;5961;42.640;23.380;2022-11-27T07:43:45;49.93;;;28.37;;
11807;SDS011;5961;42.640;23.380;2022-11-27T07:46:13;51.13;;;29.70;;
11807;SDS011;5961;42.640;23.380;2022-11-27T07:48:41;47.40;;;28.50;;
11807;SDS011;5961;42.640;23.380;2022-11-27T07:51:09;53.97;;;29.53;;
11807;SDS011;5961;42.640;23.380;2022-11-27T07:53:37;54.37;;;30.43;;
11807;SDS011;5961;42.640;23.380;2022-11-27T07:56:05;55.93;;;31.07;;
11807;SDS011;5961;42.640;23.380;2022-11-27T07:58:34;58.47;;;30.77;;
11807;SDS011;5961;42.640;23.380;2022-11-27T08:01:04;53.73;;;29.97;;
11807;SDS011;5961;42.640;23.380;2022-11-27T08:03:33;56.03;;;29.97;;
11807;SDS011;5961;42.640;23.380;2022-11-27T08:05:59;56.47;;;29.83;;
11807;SDS011;5961;42.640;23.380;2022-11-27T08:08:26;55.53;;;30.20;;
11807;SDS011;5961;42.640;23.380;2022-11-27T08:10:53;51.43;;;28.63;;
11807;SDS011;5961;42.640;23.380;2022-11-27T08:13:20;50.80;;;29.73;;
11807;SDS011;5961;42.640;23.380;2022-11-27T08:15:46;51.70;;;29.00;;
11807;SDS011;5961;42.640;23.380;2022-11-27T08:18:13;51.10;;;28.40;;
11807;SDS011;5961;42.640;23.380;2022-11-27T08:20:41;54.23;;;29.77;;
11807;SDS011;5961;42.640;23.380;2022-11-27T08:23:08;50.17;;;27.80;;
11807;SDS011;5961;42.640;23.380;2022-11-27T08:25:36;50.63;;;27.57;;
11807;SDS011;5961;42.640;23.380;2022-11-27T08:28:03;51.23;;;28.50;;
11807;SDS011;5961;42.640;23.380;2022-11-27T08:30:30;50.23;;;27.47;;
11807;SDS011;5961;42.640;23.380;2022-11-27T08:32:56;50.40;;;28.10;;
11807;SDS011;5961;42.640;23.380;2022-11-27T08:35:23;49.33;;;27.73;;
11807;SDS011;5961;42.640;23.380;2022-11-27T08:37:51;45.13;;;26.83;;
11807;SDS011;5961;42.640;23.380;2022-11-27T08:40:18;51.73;;;28.50;;
11807;SDS011;5961;42.640;23.380;2022-11-27T08:42:44;45.27;;;26.00;;
11807;SDS011;5961;42.640;23.380;2022-11-27T08:45:11;46.33;;;25.63;;
11807;SDS011;5961;42.640;23.380;2022-11-27T08:47:38;46.73;;;26.20;;
11807;SDS011;5961;42.640;23.380;2022-11-27T08:50:05;46.60;;;26.50;;
11807;SDS011;5961;42.640;23.380;2022-11-27T08:52:33;42.60;;;25.47;;
11807;SDS011;5961;42.640;23.380;2022-11-27T08:55:01;49.10;;;26.87;;
11807;SDS011;5961;42.640;23.380;2022-11-27T08:57:27;50.10;;;28.20;;
11807;SDS011;5961;42.640;23.380;2022-11-27T08:59:54;44.20;;;26.33;;
11807;SDS011;5961;42.640;23.380;2022-11-27T09:02:21;51.17;;;28.77;;
11807;SDS011;5961;42.640;23.380;2022-11-27T09:04:48;46.67;;;28.07;;
11807;SDS011;5961;42.640;23.380;2022-11-27T09:07:14;48.93;;;28.50;;
11807;SDS011;5961;42.640;23.380;2022-11-27T09:09:41;45.97;;;27.90;;
11807;SDS011;5961;42.640;23.380;2022-11-27T09:12:09;47.97;;;28.23;;
11807;SDS011;5961;42.640;23.380;2022-11-27T09:14:36;41.67;;;26.27;;
11807;SDS011;5961;42.640;23.380;2022-11-27T09:17:03;43.80;;;26.07;;
11807;SDS011;5961;42.640;23.380;2022-11-27T09:19:29;42.60;;;26.17;;
11807;SDS011;5961;42.640;23.380;2022-11-27T09:21:56;45.40;;;26.70;;
11807;SDS011;5961;42.640;23.380;2022-11-27T09:24:23;47.97;;;26.53;;
11807;SDS011;5961;42.640;23.380;2022-11-27T09:26:50;49.07;;;27.87;;
11807;SDS011;5961;42.640;23.380;2022-11-27T09:29:18;42.47;;;25.70;;
11807;SDS011;5961;42.640;23.380;2022-11-27T09:31:45;46.43;;;27.43;;
11807;SDS011;5961;42.640;23.380;2022-11-27T09:34:12;44.43;;;27.23;;
11807;SDS011;5961;42.640;23.380;2022-11-27T09:36:38;46.70;;;28.87;;
11807;SDS011;5961;42.640;23.380;2022-11-27T09:39:05;47.60;;;27.80;;
11807;SDS011;5961;42.640;23.380;2022-11-27T09:41:34;47.10;;;27.53;;
11807;SDS011;5961;42.640;23.380;2022-11-27T09:44:16;45.93;;;26.57;;
11807;SDS011;5961;42.640;23.380;2022-11-27T09:46:52;44.57;;;26.43;;
11807;SDS011;5961;42.640;23.380;2022-11-27T09:49:22;46.13;;;27.73;;
11807;SDS011;5961;42.640;23.380;2022-11-27T09:51:52;39.33;;;25.27;;
11807;SDS011;5961;42.640;23.380;2022-11-27T09:54:25;38.57;;;24.23;;
11807;SDS011;5961;42.640;23.380;2022-11-27T09:56:57;41.17;;;25.50;;
11807;SDS011;5961;42.640;23.380;2022-11-27T09:59:26;40.93;;;24.57;;
11807;SDS011;5961;42.640;23.380;2022-11-27T10:01:59;34.43;;;21.60;;
11807;SDS011;5961;42.640;23.380;2022-11-27T10:04:25;31.20;;;19.53;;
11807;SDS011;5961;42.640;23.380;2022-11-27T10:07:07;35.97;;;20.43;;
11807;SDS011;5961;42.640;23.380;2022-11-27T10:09:49;36.87;;;21.53;;
11807;SDS011;5961;42.640;23.380;2022-11-27T10:12:28;33.67;;;20.80;;
11807;SDS011;5961;42.640;23.380;2022-11-27T10:15:08;35.97;;;22.17;;
11807;SDS011;5961;42.640;23.380;2022-11-27T10:17:42;34.13;;;21.03;;
11807;SDS011;5961;42.640;23.380;2022-11-27T10:20:17;36.00;;;21.70;;
11807;SDS011;5961;42.640;23.380;2022-11-27T10:22:54;32.13;;;20.43;;
11807;SDS011;5961;42.640;23.380;2022-11-27T10:25:28;36.27;;;20.07;;
11807;SDS011;5961;42.640;23.380;2022-11-27T10:28:02;34.63;;;19.97;;
11807;SDS011;5961;42.640;23.380;2022-11-27T10:30:41;30.03;;;17.40;;
11807;SDS011;5961;42.640;23.380;2022-11-27T10:33:14;28.83;;;18.00;;
11807;SDS011;5961;42.640;23.380;2022-11-27T10:35:45;27.63;;;16.93;;
11807;SDS011;5961;42.640;23.380;2022-11-27T10:38:15;27.87;;;16.50;;
11807;SDS011;5961;42.640;23.380;2022-11-27T10:40:57;26.67;;;17.23;;
11807;SDS011;5961;42.640;23.380;2022-11-27T10:43:32;25.90;;;17.47;;
11807;SDS011;5961;42.640;23.380;2022-11-27T10:46:01;26.77;;;17.47;;
11807;SDS011;5961;42.640;23.380;2022-11-27T10:48:34;30.27;;;17.80;;
11807;SDS011;5961;42.640;23.380;2022-11-27T10:51:02;26.80;;;16.83;;
11807;SDS011;5961;42.640;23.380;2022-11-27T10:53:29;26.23;;;16.57;;
11807;SDS011;5961;42.640;23.380;2022-11-27T10:56:04;29.20;;;16.53;;
11807;SDS011;5961;42.640;23.380;2022-11-27T10:58:48;23.57;;;14.63;;
11807;SDS011;5961;42.640;23.380;2022-11-27T11:01:21;22.97;;;14.67;;
11807;SDS011;5961;42.640;23.380;2022-11-27T11:03:49;26.23;;;16.80;;
11807;SDS011;5961;42.640;23.380;2022-11-27T11:06:29;23.97;;;15.20;;
11807;SDS011;5961;42.640;23.380;2022-11-27T11:08:59;23.33;;;14.63;;
11807;SDS011;5961;42.640;23.380;2022-11-27T11:11:27;28.23;;;16.53;;
11807;SDS011;5961;42.640;23.380;2022-11-27T11:13:54;29.70;;;18.10;;
11807;SDS011;5961;42.640;23.380;2022-11-27T11:16:23;27.13;;;16.33;;
11807;SDS011;5961;42.640;23.380;2022-11-27T11:18:52;28.57;;;16.83;;
11807;SDS011;5961;42.640;23.380;2022-11-27T11:21:22;25.93;;;16.77;;
11807;SDS011;5961;42.640;23.380;2022-11-27T11:23:55;28.60;;;18.20;;
11807;SDS011;5961;42.640;23.380;2022-11-27T11:26:27;32.17;;;19.90;;
11807;SDS011;5961;42.640;23.380;2022-11-27T11:28:57;30.93;;;19.47;;
11807;SDS011;5961;42.640;23.380;2022-11-27T11:31:31;37.80;;;20.93;;
11807;SDS011;5961;42.640;23.380;2022-11-27T11:34:00;33.30;;;21.27;;
11807;SDS011;5961;42.640;23.380;2022-11-27T11:36:29;33.27;;;21.47;;
11807;SDS011;5961;42.640;23.380;2022-11-27T11:38:56;33.60;;;20.23;;
11807;SDS011;5961;42.640;23.380;2022-11-27T11:41:23;32.37;;;21.27;;
11807;SDS011;5961;42.640;23.380;2022-11-27T11:43:56;32.57;;;19.70;;
11807;SDS011;5961;42.640;23.380;2022-11-27T11:46:26;32.80;;;20.03;;
11807;SDS011;5961;42.640;23.380;2022-11-27T11:48:56;29.83;;;19.53;;
11807;SDS011;5961;42.640;23.380;2022-11-27T11:51:32;29.80;;;17.90;;
11807;SDS011;5961;42.640;23.380;2022-11-27T11:54:18;24.67;;;15.80;;
11807;SDS011;5961;42.640;23.380;2022-11-27T11:56:54;24.07;;;15.70;;
11807;SDS011;5961;42.640;23.380;2022-11-27T11:59:29;20.50;;;13.13;;
11807;SDS011;5961;42.640;23.380;2022-11-27T12:02:17;17.17;;;12.03;;
11807;SDS011;5961;42.640;23.380;2022-11-27T12:05:17;21.00;;;12.40;;
11807;SDS011;5961;42.640;23.380;2022-11-27T12:07:53;20.20;;;12.30;;
11807;SDS011;5961;42.640;23.380;2022-11-27T12:10:43;16.33;;;11.87;;
11807;SDS011;5961;42.640;23.380;2022-11-27T12:13:23;20.37;;;12.50;;
11807;SDS011;5961;42.640;23.380;2022-11-27T12:16:01;21.20;;;13.50;;
11807;SDS011;5961;42.640;23.380;2022-11-27T12:18:35;20.57;;;12.80;;
11807;SDS011;5961;42.640;23.380;2022-11-27T12:21:13;22.37;;;12.93;;
11807;SDS011;5961;42.640;23.380;2022-11-27T12:23:48;20.67;;;12.90;;
11807;SDS011;5961;42.640;23.380;2022-11-27T12:26:26;22.47;;;14.37;;
11807;SDS011;5961;42.640;23.380;2022-11-27T12:29:06;24.20;;;14.93;;
11807;SDS011;5961;42.640;23.380;2022-11-27T12:31:51;25.60;;;14.60;;
11807;SDS011;5961;42.640;23.380;2022-11-27T12:34:38;24.47;;;14.13;;
11807;SDS011;5961;42.640;23.380;2022-11-27T12:37:23;19.97;;;12.77;;
11807;SDS011;5961;42.640;23.380;2022-11-27T12:40:08;24.07;;;13.20;;
11807;SDS011;5961;42.640;23.380;2022-11-27T12:42:47;20.53;;;12.63;;
11807;SDS011;5961;42.640;23.380;2022-11-27T12:45:19;19.93;;;13.13;;
11807;SDS011;5961;42.640;23.380;2022-11-27T12:47:51;17.43;;;12.13;;
11807;SDS011;5961;42.640;23.380;2022-11-27T12:50:21;20.30;;;12.57;;
11807;SDS011;5961;42.640;23.380;2022-11-27T12:52:58;21.13;;;12.73;;
11807;SDS011;5961;42.640;23.380;2022-11-27T12:55:32;19.63;;;11.73;;
11807;SDS011;5961;42.640;23.380;2022-11-27T12:58:01;20.97;;;12.27;;
11807;SDS011;5961;42.640;23.380;2022-11-27T13:00:34;21.70;;;12.47;;
11807;SDS011;5961;42.640;23.380;2022-11-27T13:03:05;21.53;;;14.17;;
11807;SDS011;5961;42.640;23.380;2022-11-27T13:05:39;22.23;;;14.53;;
11807;SDS011;5961;42.640;23.380;2022-11-27T13:08:12;24.30;;;15.73;;
11807;SDS011;5961;42.640;23.380;2022-11-27T13:10:44;26.50;;;14.47;;
11807;SDS011;5961;42.640;23.380;2022-11-27T13:13:17;27.10;;;15.07;;
11807;SDS011;5961;42.640;23.380;2022-11-27T13:15:49;24.73;;;15.30;;
11807;SDS011;5961;42.640;23.380;2022-11-27T13:18:20;28.43;;;15.60;;
11807;SDS011;5961;42.640;23.380;2022-11-27T13:20:55;24.13;;;15.30;;
11807;SDS011;5961;42.640;23.380;2022-11-27T13:23:30;23.13;;;14.60;;
11807;SDS011;5961;42.640;23.380;2022-11-27T13:25:58;25.60;;;15.73;;
11807;SDS011;5961;42.640;23.380;2022-11-27T13:28:30;26.00;;;15.07;;
11807;SDS011;5961;42.640;23.380;2022-11-27T13:31:03;26.80;;;15.93;;
11807;SDS011;5961;42.640;23.380;2022-11-27T13:33:35;24.10;;;16.20;;
11807;SDS011;5961;42.640;23.380;2022-11-27T13:36:04;27.53;;;15.63;;
11807;SDS011;5961;42.640;23.380;2022-11-27T13:38:44;25.67;;;15.87;;
11807;SDS011;5961;42.640;23.380;2022-11-27T13:41:18;25.20;;;15.33;;
11807;SDS011;5961;42.640;23.380;2022-11-27T13:43:46;21.33;;;14.17;;
11807;SDS011;5961;42.640;23.380;2022-11-27T13:46:17;22.80;;;14.73;;
11807;SDS011;5961;42.640;23.380;2022-11-27T13:48:47;24.20;;;15.60;;
11807;SDS011;5961;42.640;23.380;2022-11-27T13:51:23;23.47;;;15.60;;
11807;SDS011;5961;42.640;23.380;2022-11-27T13:53:53;23.50;;;16.23;;
11807;SDS011;5961;42.640;23.380;2022-11-27T13:56:32;27.60;;;16.00;;
11807;SDS011;5961;42.640;23.380;2022-11-27T13:58:59;25.73;;;15.87;;
11807;SDS011;5961;42.640;23.380;2022-11-27T14:01:26;29.90;;;16.70;;
11807;SDS011;5961;42.640;23.380;2022-11-27T14:03:52;23.80;;;14.70;;
11807;SDS011;5961;42.640;23.380;2022-11-27T14:06:20;23.83;;;15.33;;
11807;SDS011;5961;42.640;23.380;2022-11-27T14:08:51;23.33;;;14.43;;
11807;SDS011;5961;42.640;23.380;2022-11-27T14:11:32;22.87;;;13.57;;
11807;SDS011;5961;42.640;23.380;2022-11-27T14:14:09;24.57;;;14.87;;
11807;SDS011;5961;42.640;23.380;2022-11-27T14:16:40;25.23;;;15.33;;
11807;SDS011;5961;42.640;23.380;2022-11-27T14:19:21;25.50;;;15.70;;
11807;SDS011;5961;42.640;23.380;2022-11-27T14:21:51;27.40;;;17.77;;
11807;SDS011;5961;42.640;23.380;2022-11-27T14:24:24;32.90;;;17.87;;
11807;SDS011;5961;42.640;23.380;2022-11-27T14:26:58;29.10;;;19.97;;
11807;SDS011;5961;42.640;23.380;2022-11-27T14:29:27;29.23;;;18.20;;
11807;SDS011;5961;42.640;23.380;2022-11-27T14:31:55;31.80;;;19.30;;
11807;SDS011;5961;42.640;23.380;2022-11-27T14:34:26;25.87;;;15.70;;
11807;SDS011;5961;42.640;23.380;2022-11-27T14:36:54;25.60;;;15.77;;
11807;SDS011;5961;42.640;23.380;2022-11-27T14:39:22;19.03;;;12.60;;